sensor_id;sensor_type;location;lat;lon;timestamp;pressure;altitude;pressure_sealevel;temperature;humidity
54022;BME280;39936;51.058;17.220;2024-01-30T00:04:00;103373.67;;;2.12;76.78
54022;BME280;39936;51.058;17.220;2024-01-30T00:11:29;103363.13;;;1.87;77.79
54022;BME280;39936;51.058;17.220;2024-01-30T00:15:08;103360.73;;;1.91;78.15
54022;BME280;39936;51.058;17.220;2024-01-30T00:19:14;103368.57;;;1.92;78.45
54022;BME280;39936;51.058;17.220;2024-01-30T00:22:50;103325.02;;;1.71;78.69
54022;BME280;39936;51.058;17.220;2024-01-30T00:26:38;103362.17;;;1.97;78.74
54022;BME280;39936;51.058;17.220;2024-01-30T00:33:54;103335.92;;;1.68;79.01
54022;BME280;39936;51.058;17.220;2024-01-30T00:37:11;103331.71;;;1.62;79.07
54022;BME280;39936;51.058;17.220;2024-01-30T00:41:03;103341.34;;;1.65;79.66
54022;BME280;39936;51.058;17.220;2024-01-30T00:44:22;103343.88;;;1.73;79.61
54022;BME280;39936;51.058;17.220;2024-01-30T00:47:41;103368.15;;;1.79;79.77
54022;BME280;39936;51.058;17.220;2024-01-30T00:51:24;103371.70;;;1.74;80.01
54022;BME280;39936;51.058;17.220;2024-01-30T00:54:57;103378.45;;;1.74;80.05
54022;BME280;39936;51.058;17.220;2024-01-30T00:59:14;103376.87;;;1.65;80.02
54022;BME280;39936;51.058;17.220;2024-01-30T01:02:56;103379.17;;;1.62;80.38
54022;BME280;39936;51.058;17.220;2024-01-30T01:06:19;103366.70;;;1.62;80.79
54022;BME280;39936;51.058;17.220;2024-01-30T01:09:40;103364.69;;;1.66;80.75
54022;BME280;39936;51.058;17.220;2024-01-30T01:13:34;103364.34;;;1.69;80.66
54022;BME280;39936;51.058;17.220;2024-01-30T01:17:12;103368.77;;;1.73;80.48
54022;BME280;39936;51.058;17.220;2024-01-30T01:20:36;103369.55;;;1.72;80.46
54022;BME280;39936;51.058;17.220;2024-01-30T01:24:16;103357.90;;;1.65;80.36
54022;BME280;39936;51.058;17.220;2024-01-30T01:27:58;103370.75;;;1.75;80.18
54022;BME280;39936;51.058;17.220;2024-01-30T01:32:02;103370.30;;;1.81;79.78
54022;BME280;39936;51.058;17.220;2024-01-30T01:35:44;103360.89;;;1.79;79.30
54022;BME280;39936;51.058;17.220;2024-01-30T01:39:23;103367.90;;;1.76;78.91
54022;BME280;39936;51.058;17.220;2024-01-30T01:43:04;103372.14;;;1.66;78.75
54022;BME280;39936;51.058;17.220;2024-01-30T01:46:51;103373.27;;;1.53;78.98
54022;BME280;39936;51.058;17.220;2024-01-30T01:50:09;103368.80;;;1.45;78.95
54022;BME280;39936;51.058;17.220;2024-01-30T01:53:33;103362.71;;;1.38;78.81
54022;BME280;39936;51.058;17.220;2024-01-30T01:57:04;103368.13;;;1.24;78.84
54022;BME280;39936;51.058;17.220;2024-01-30T02:01:02;103357.27;;;1.04;79.10
54022;BME280;39936;51.058;17.220;2024-01-30T02:05:00;103361.61;;;0.93;79.44
54022;BME280;39936;51.058;17.220;2024-01-30T02:08:41;103331.02;;;0.61;79.67
54022;BME280;39936;51.058;17.220;2024-01-30T02:12:19;103368.10;;;0.74;79.87
54022;BME280;39936;51.058;17.220;2024-01-30T02:16:13;103368.12;;;0.62;80.05
54022;BME280;39936;51.058;17.220;2024-01-30T02:19:37;103370.97;;;0.53;80.11
54022;BME280;39936;51.058;17.220;2024-01-30T02:23:34;103374.07;;;0.43;80.51
54022;BME280;39936;51.058;17.220;2024-01-30T02:27:07;103348.24;;;0.19;80.77
54022;BME280;39936;51.058;17.220;2024-01-30T02:30:24;103362.52;;;0.18;80.88
54022;BME280;39936;51.058;17.220;2024-01-30T02:34:36;103376.74;;;-0.30;83.61
54022;BME280;39936;51.058;17.220;2024-01-30T02:38:35;103380.23;;;-0.72;88.39
54022;BME280;39936;51.058;17.220;2024-01-30T02:42:08;103381.27;;;-0.78;90.87
54022;BME280;39936;51.058;17.220;2024-01-30T02:45:37;103373.13;;;-0.91;92.25
54022;BME280;39936;51.058;17.220;2024-01-30T02:48:52;103380.62;;;-0.87;93.18
54022;BME280;39936;51.058;17.220;2024-01-30T02:52:12;103373.73;;;-0.85;93.36
54022;BME280;39936;51.058;17.220;2024-01-30T02:55:55;103359.03;;;-0.92;95.04
54022;BME280;39936;51.058;17.220;2024-01-30T02:59:39;103377.00;;;-0.80;95.46
54022;BME280;39936;51.058;17.220;2024-01-30T03:03:08;103372.16;;;-0.92;95.61
54022;BME280;39936;51.058;17.220;2024-01-30T03:06:48;103374.44;;;-1.03;95.82
54022;BME280;39936;51.058;17.220;2024-01-30T03:10:41;103369.42;;;-1.17;97.33
54022;BME280;39936;51.058;17.220;2024-01-30T03:14:47;103368.63;;;-1.19;97.42
54022;BME280;39936;51.058;17.220;2024-01-30T03:18:14;103369.94;;;-1.13;96.83
54022;BME280;39936;51.058;17.220;2024-01-30T03:21:56;103360.76;;;-1.11;96.34
54022;BME280;39936;51.058;17.220;2024-01-30T03:26:01;103367.59;;;-1.08;95.88
54022;BME280;39936;51.058;17.220;2024-01-30T03:29:43;103368.48;;;-1.10;95.26
54022;BME280;39936;51.058;17.220;2024-01-30T03:33:29;103365.16;;;-1.27;96.16
54022;BME280;39936;51.058;17.220;2024-01-30T03:37:09;103354.78;;;-1.35;95.95
54022;BME280;39936;51.058;17.220;2024-01-30T03:41:10;103356.04;;;-1.39;95.50
54022;BME280;39936;51.058;17.220;2024-01-30T03:45:13;103364.54;;;-1.64;98.55
54022;BME280;39936;51.058;17.220;2024-01-30T03:48:49;103361.09;;;-1.75;97.85
54022;BME280;39936;51.058;17.220;2024-01-30T03:56:39;103360.46;;;-2.02;99.62
54022;BME280;39936;51.058;17.220;2024-01-30T04:00:16;103321.01;;;-2.19;100.00
54022;BME280;39936;51.058;17.220;2024-01-30T04:03:51;103344.57;;;-1.95;100.00
54022;BME280;39936;51.058;17.220;2024-01-30T04:08:02;103357.70;;;-1.81;100.00
54022;BME280;39936;51.058;17.220;2024-01-30T04:12:01;103355.17;;;-1.73;100.00
54022;BME280;39936;51.058;17.220;2024-01-30T04:23:50;103349.35;;;-1.49;99.63
54022;BME280;39936;51.058;17.220;2024-01-30T04:27:38;103350.69;;;-1.46;99.34
54022;BME280;39936;51.058;17.220;2024-01-30T04:31:28;103349.70;;;-1.42;98.97
54022;BME280;39936;51.058;17.220;2024-01-30T04:35:48;103352.38;;;-1.39;98.72
54022;BME280;39936;51.058;17.220;2024-01-30T04:42:58;103364.19;;;-1.38;98.52
54022;BME280;39936;51.058;17.220;2024-01-30T04:46:39;103360.20;;;-1.39;98.56
54022;BME280;39936;51.058;17.220;2024-01-30T04:50:21;103360.34;;;-1.53;98.71
54022;BME280;39936;51.058;17.220;2024-01-30T04:53:49;103349.37;;;-1.65;98.89
54022;BME280;39936;51.058;17.220;2024-01-30T04:58:01;103360.62;;;-1.53;98.51
54022;BME280;39936;51.058;17.220;2024-01-30T05:01:20;103358.87;;;-1.69;98.91
54022;BME280;39936;51.058;17.220;2024-01-30T05:05:38;103362.09;;;-1.76;99.46
54022;BME280;39936;51.058;17.220;2024-01-30T05:08:53;103354.09;;;-1.79;99.57
54022;BME280;39936;51.058;17.220;2024-01-30T05:12:54;103325.57;;;-1.96;99.33
54022;BME280;39936;51.058;17.220;2024-01-30T05:16:44;103357.25;;;-1.75;98.98
54022;BME280;39936;51.058;17.220;2024-01-30T05:20:00;103333.34;;;-1.94;98.47
54022;BME280;39936;51.058;17.220;2024-01-30T05:23:17;103361.17;;;-1.88;98.43
54022;BME280;39936;51.058;17.220;2024-01-30T05:26:59;103360.16;;;-1.91;98.44
54022;BME280;39936;51.058;17.220;2024-01-30T05:34:52;103359.59;;;-1.76;98.96
54022;BME280;39936;51.058;17.220;2024-01-30T05:42:17;103364.22;;;-1.65;99.01
54022;BME280;39936;51.058;17.220;2024-01-30T05:45:52;103328.23;;;-1.87;98.93
54022;BME280;39936;51.058;17.220;2024-01-30T05:49:44;103365.61;;;-1.65;98.81
54022;BME280;39936;51.058;17.220;2024-01-30T05:52:59;103365.14;;;-1.66;98.64
54022;BME280;39936;51.058;17.220;2024-01-30T05:56:20;103365.66;;;-1.62;98.73
54022;BME280;39936;51.058;17.220;2024-01-30T05:59:59;103335.03;;;-1.81;98.77
54022;BME280;39936;51.058;17.220;2024-01-30T06:03:39;103365.20;;;-1.54;99.13
54022;BME280;39936;51.058;17.220;2024-01-30T06:07:27;103358.33;;;-1.43;99.99
54022;BME280;39936;51.058;17.220;2024-01-30T06:10:40;103369.88;;;-1.25;100.00
54022;BME280;39936;51.058;17.220;2024-01-30T06:14:55;103364.05;;;-1.14;100.00
54022;BME280;39936;51.058;17.220;2024-01-30T06:18:22;103363.45;;;-1.10;100.00
54022;BME280;39936;51.058;17.220;2024-01-30T06:22:23;103364.60;;;-0.93;100.00
54022;BME280;39936;51.058;17.220;2024-01-30T06:25:38;103365.33;;;-0.76;100.00
54022;BME280;39936;51.058;17.220;2024-01-30T06:29:08;103361.26;;;-0.61;99.91
54022;BME280;39936;51.058;17.220;2024-01-30T06:33:05;103313.27;;;-0.64;98.73
54022;BME280;39936;51.058;17.220;2024-01-30T06:37:05;103352.08;;;-0.09;97.17
54022;BME280;39936;51.058;17.220;2024-01-30T06:40:38;103351.91;;;0.19;94.86
54022;BME280;39936;51.058;17.220;2024-01-30T06:44:31;103353.92;;;0.48;91.76
54022;BME280;39936;51.058;17.220;2024-01-30T06:48:07;103353.49;;;0.65;89.96
54022;BME280;39936;51.058;17.220;2024-01-30T06:51:58;103340.95;;;0.75;88.16
54022;BME280;39936;51.058;17.220;2024-01-30T06:55:32;103355.30;;;1.04;86.51
54022;BME280;39936;51.058;17.220;2024-01-30T06:59:27;103349.78;;;1.18;84.90
54022;BME280;39936;51.058;17.220;2024-01-30T07:02:47;103315.20;;;1.04;84.27
54022;BME280;39936;51.058;17.220;2024-01-30T07:06:23;103358.37;;;1.39;83.43
54022;BME280;39936;51.058;17.220;2024-01-30T07:09:53;103354.28;;;1.47;82.83
54022;BME280;39936;51.058;17.220;2024-01-30T07:13:35;103353.45;;;1.59;81.95
54022;BME280;39936;51.058;17.220;2024-01-30T07:17:13;103355.15;;;1.75;80.89
54022;BME280;39936;51.058;17.220;2024-01-30T07:21:01;103356.88;;;1.81;80.32
54022;BME280;39936;51.058;17.220;2024-01-30T07:28:54;103354.34;;;2.08;78.58
54022;BME280;39936;51.058;17.220;2024-01-30T07:32:18;103351.67;;;2.23;78.30
54022;BME280;39936;51.058;17.220;2024-01-30T07:35:58;103349.98;;;2.35;76.99
54022;BME280;39936;51.058;17.220;2024-01-30T07:39:14;103348.34;;;2.51;76.46
54022;BME280;39936;51.058;17.220;2024-01-30T07:42:53;103344.32;;;2.66;75.25
54022;BME280;39936;51.058;17.220;2024-01-30T07:46:12;103310.40;;;2.56;74.29
54022;BME280;39936;51.058;17.220;2024-01-30T07:49:49;103349.83;;;2.92;73.76
54022;BME280;39936;51.058;17.220;2024-01-30T07:53:04;103322.25;;;2.87;72.93
54022;BME280;39936;51.058;17.220;2024-01-30T07:56:40;103350.88;;;3.19;72.17
54022;BME280;39936;51.058;17.220;2024-01-30T08:00:23;103339.32;;;3.30;71.49
54022;BME280;39936;51.058;17.220;2024-01-30T08:03:38;103341.64;;;3.41;71.03
54022;BME280;39936;51.058;17.220;2024-01-30T08:07:10;103346.53;;;3.43;71.09
54022;BME280;39936;51.058;17.220;2024-01-30T08:10:32;103333.70;;;3.53;70.55
54022;BME280;39936;51.058;17.220;2024-01-30T08:14:14;103293.34;;;3.41;70.02
54022;BME280;39936;51.058;17.220;2024-01-30T08:17:37;103312.93;;;3.68;68.99
54022;BME280;39936;51.058;17.220;2024-01-30T08:20:55;103332.10;;;3.92;68.27
54022;BME280;39936;51.058;17.220;2024-01-30T08:24:10;103333.45;;;4.01;68.47
54022;BME280;39936;51.058;17.220;2024-01-30T08:27:55;103333.07;;;4.15;68.46
54022;BME280;39936;51.058;17.220;2024-01-30T08:31:18;103303.16;;;4.13;67.60
54022;BME280;39936;51.058;17.220;2024-01-30T08:34:39;103324.77;;;4.43;67.05
54022;BME280;39936;51.058;17.220;2024-01-30T08:38:22;103322.61;;;4.56;66.03
54022;BME280;39936;51.058;17.220;2024-01-30T08:41:40;103322.07;;;4.66;65.48
54022;BME280;39936;51.058;17.220;2024-01-30T08:45:16;103313.10;;;4.80;64.73
54022;BME280;39936;51.058;17.220;2024-01-30T08:52:39;103288.33;;;4.87;63.68
54022;BME280;39936;51.058;17.220;2024-01-30T08:56:24;103314.24;;;5.15;63.22
54022;BME280;39936;51.058;17.220;2024-01-30T08:59:50;103317.70;;;5.28;62.56
54022;BME280;39936;51.058;17.220;2024-01-30T09:03:08;103317.81;;;5.31;62.62
54022;BME280;39936;51.058;17.220;2024-01-30T09:07:12;103311.70;;;5.34;62.10
54022;BME280;39936;51.058;17.220;2024-01-30T09:10:56;103304.84;;;5.41;61.92
54022;BME280;39936;51.058;17.220;2024-01-30T09:14:21;103311.48;;;5.52;61.83
54022;BME280;39936;51.058;17.220;2024-01-30T09:17:41;103302.27;;;5.56;61.21
54022;BME280;39936;51.058;17.220;2024-01-30T09:21:03;103305.88;;;5.70;60.46
54022;BME280;39936;51.058;17.220;2024-01-30T09:24:45;103298.78;;;5.79;60.01
54022;BME280;39936;51.058;17.220;2024-01-30T09:28:05;103301.66;;;5.88;59.68
54022;BME280;39936;51.058;17.220;2024-01-30T09:31:28;103302.66;;;5.99;59.97
54022;BME280;39936;51.058;17.220;2024-01-30T09:39:09;103272.29;;;5.96;58.49
54022;BME280;39936;51.058;17.220;2024-01-30T09:42:34;103268.29;;;6.06;58.29
54022;BME280;39936;51.058;17.220;2024-01-30T09:46:03;103292.34;;;6.26;58.79
54022;BME280;39936;51.058;17.220;2024-01-30T09:50:06;103283.44;;;6.21;58.19
54022;BME280;39936;51.058;17.220;2024-01-30T09:53:54;103266.91;;;6.29;58.25
54022;BME280;39936;51.058;17.220;2024-01-30T09:57:21;103285.39;;;6.50;57.72
54022;BME280;39936;51.058;17.220;2024-01-30T10:00:53;103280.52;;;6.55;57.49
54022;BME280;39936;51.058;17.220;2024-01-30T10:04:15;103276.91;;;6.65;57.98
54022;BME280;39936;51.058;17.220;2024-01-30T10:07:56;103265.41;;;6.66;56.94
54022;BME280;39936;51.058;17.220;2024-01-30T10:11:20;103266.77;;;6.82;57.68
54022;BME280;39936;51.058;17.220;2024-01-30T10:14:47;103241.34;;;6.75;56.86
54022;BME280;39936;51.058;17.220;2024-01-30T10:18:28;103239.21;;;6.94;57.21
54022;BME280;39936;51.058;17.220;2024-01-30T10:21:55;103249.48;;;7.00;56.36
54022;BME280;39936;51.058;17.220;2024-01-30T10:25:14;103251.05;;;7.11;56.89
54022;BME280;39936;51.058;17.220;2024-01-30T10:28:33;103239.47;;;7.18;55.99
54022;BME280;39936;51.058;17.220;2024-01-30T10:32:07;103245.85;;;7.18;55.55
54022;BME280;39936;51.058;17.220;2024-01-30T10:35:26;103242.73;;;7.25;55.61
54022;BME280;39936;51.058;17.220;2024-01-30T10:38:51;103240.48;;;7.34;54.89
54022;BME280;39936;51.058;17.220;2024-01-30T10:42:26;103240.72;;;7.35;55.45
54022;BME280;39936;51.058;17.220;2024-01-30T10:46:19;103229.45;;;7.43;54.54
54022;BME280;39936;51.058;17.220;2024-01-30T10:50:13;103189.36;;;7.36;55.17
54022;BME280;39936;51.058;17.220;2024-01-30T10:53:39;103212.23;;;7.58;54.43
54022;BME280;39936;51.058;17.220;2024-01-30T10:57:27;103212.55;;;7.69;54.42
54022;BME280;39936;51.058;17.220;2024-01-30T11:00:55;103210.45;;;7.79;53.86
54022;BME280;39936;51.058;17.220;2024-01-30T11:04:42;103187.05;;;7.74;53.72
54022;BME280;39936;51.058;17.220;2024-01-30T11:11:23;103193.34;;;8.10;54.44
54022;BME280;39936;51.058;17.220;2024-01-30T11:14:38;103193.55;;;8.17;52.68
54022;BME280;39936;51.058;17.220;2024-01-30T11:17:54;103183.45;;;8.18;53.19
54022;BME280;39936;51.058;17.220;2024-01-30T11:21:08;103182.30;;;8.22;53.68
54022;BME280;39936;51.058;17.220;2024-01-30T11:24:41;103188.54;;;8.30;53.10
54022;BME280;39936;51.058;17.220;2024-01-30T11:28:00;103177.88;;;8.39;53.71
54022;BME280;39936;51.058;17.220;2024-01-30T11:31:19;103143.62;;;8.21;53.93
54022;BME280;39936;51.058;17.220;2024-01-30T11:34:59;103172.24;;;8.34;52.09
54022;BME280;39936;51.058;17.220;2024-01-30T11:38:59;103167.92;;;8.35;52.70
54022;BME280;39936;51.058;17.220;2024-01-30T11:42:41;103144.62;;;8.22;52.83
54022;BME280;39936;51.058;17.220;2024-01-30T11:46:00;103160.72;;;8.49;53.78
54022;BME280;39936;51.058;17.220;2024-01-30T11:49:19;103146.31;;;8.61;54.31
54022;BME280;39936;51.058;17.220;2024-01-30T11:52:41;103147.30;;;8.72;52.56
54022;BME280;39936;51.058;17.220;2024-01-30T11:56:06;103145.30;;;8.60;51.88
54022;BME280;39936;51.058;17.220;2024-01-30T11:59:22;103143.15;;;8.54;53.44
54022;BME280;39936;51.058;17.220;2024-01-30T12:02:52;103135.00;;;8.62;52.91
54022;BME280;39936;51.058;17.220;2024-01-30T12:06:15;103138.55;;;8.58;53.41
54022;BME280;39936;51.058;17.220;2024-01-30T12:09:31;103135.20;;;8.70;53.18
54022;BME280;39936;51.058;17.220;2024-01-30T12:12:50;103128.47;;;8.76;52.35
54022;BME280;39936;51.058;17.220;2024-01-30T12:16:12;103122.03;;;8.69;51.33
54022;BME280;39936;51.058;17.220;2024-01-30T12:19:35;103125.32;;;8.78;53.20
54022;BME280;39936;51.058;17.220;2024-01-30T12:22:56;103119.23;;;8.87;51.64
54022;BME280;39936;51.058;17.220;2024-01-30T12:26:15;103116.62;;;8.96;53.10
54022;BME280;39936;51.058;17.220;2024-01-30T12:30:20;103104.36;;;9.00;52.94
54022;BME280;39936;51.058;17.220;2024-01-30T12:33:36;103093.49;;;9.03;53.01
54022;BME280;39936;51.058;17.220;2024-01-30T12:36:54;103095.70;;;9.03;52.42
54022;BME280;39936;51.058;17.220;2024-01-30T12:40:50;103093.21;;;9.05;52.40
54022;BME280;39936;51.058;17.220;2024-01-30T12:44:20;103095.51;;;8.89;53.05
54022;BME280;39936;51.058;17.220;2024-01-30T12:47:38;103097.18;;;8.91;53.10
54022;BME280;39936;51.058;17.220;2024-01-30T12:51:33;103096.42;;;8.93;52.46
54022;BME280;39936;51.058;17.220;2024-01-30T12:54:52;103084.63;;;8.91;52.37
54022;BME280;39936;51.058;17.220;2024-01-30T12:58:08;103088.24;;;8.76;52.97
54022;BME280;39936;51.058;17.220;2024-01-30T13:01:22;103086.41;;;8.81;53.62
54022;BME280;39936;51.058;17.220;2024-01-30T13:04:45;103083.81;;;8.79;52.43
54022;BME280;39936;51.058;17.220;2024-01-30T13:08:08;103084.14;;;8.73;52.52
54022;BME280;39936;51.058;17.220;2024-01-30T13:11:27;103089.86;;;8.60;52.50
54022;BME280;39936;51.058;17.220;2024-01-30T13:14:45;103082.77;;;8.56;53.14
54022;BME280;39936;51.058;17.220;2024-01-30T13:18:06;103083.19;;;8.63;53.33
54022;BME280;39936;51.058;17.220;2024-01-30T13:21:34;103079.39;;;8.63;53.75
54022;BME280;39936;51.058;17.220;2024-01-30T13:24:54;103077.11;;;8.59;53.38
54022;BME280;39936;51.058;17.220;2024-01-30T13:28:19;103065.92;;;8.51;53.17
54022;BME280;39936;51.058;17.220;2024-01-30T13:31:50;103047.14;;;8.31;52.56
54022;BME280;39936;51.058;17.220;2024-01-30T13:35:09;103037.80;;;8.28;52.73
54022;BME280;39936;51.058;17.220;2024-01-30T13:38:27;103072.78;;;8.47;52.32
54022;BME280;39936;51.058;17.220;2024-01-30T13:41:48;103072.98;;;8.47;53.60
54022;BME280;39936;51.058;17.220;2024-01-30T13:45:23;103067.08;;;8.46;53.58
54022;BME280;39936;51.058;17.220;2024-01-30T13:48:46;103067.80;;;8.37;52.96
54022;BME280;39936;51.058;17.220;2024-01-30T13:51:58;103073.24;;;8.27;53.91
54022;BME280;39936;51.058;17.220;2024-01-30T13:55:14;103070.19;;;8.27;54.71
54022;BME280;39936;51.058;17.220;2024-01-30T13:58:32;103076.09;;;8.19;54.80
54022;BME280;39936;51.058;17.220;2024-01-30T14:01:51;103065.59;;;8.10;55.44
54022;BME280;39936;51.058;17.220;2024-01-30T14:06:03;103064.88;;;7.92;55.08
54022;BME280;39936;51.058;17.220;2024-01-30T14:09:21;103063.33;;;7.76;55.87
54022;BME280;39936;51.058;17.220;2024-01-30T14:13:43;103035.22;;;7.47;56.51
54022;BME280;39936;51.058;17.220;2024-01-30T14:17:48;103068.71;;;7.53;56.49
54022;BME280;39936;51.058;17.220;2024-01-30T14:21:08;103060.42;;;7.47;56.76
54022;BME280;39936;51.058;17.220;2024-01-30T14:24:36;103062.71;;;7.35;57.27
54022;BME280;39936;51.058;17.220;2024-01-30T14:27:59;103036.37;;;7.14;57.73
54022;BME280;39936;51.058;17.220;2024-01-30T14:31:26;103062.57;;;7.18;58.28
54022;BME280;39936;51.058;17.220;2024-01-30T14:35:13;103063.91;;;7.12;58.40
54022;BME280;39936;51.058;17.220;2024-01-30T14:39:06;103063.88;;;7.08;58.32
54022;BME280;39936;51.058;17.220;2024-01-30T14:42:21;103064.15;;;7.04;58.20
54022;BME280;39936;51.058;17.220;2024-01-30T14:45:43;103066.30;;;7.00;58.82
54022;BME280;39936;51.058;17.220;2024-01-30T14:49:06;103069.44;;;6.97;58.95
54022;BME280;39936;51.058;17.220;2024-01-30T14:52:31;103067.34;;;6.86;59.49
54022;BME280;39936;51.058;17.220;2024-01-30T14:55:53;103070.41;;;6.81;59.70
54022;BME280;39936;51.058;17.220;2024-01-30T14:59:20;103071.95;;;6.81;58.88
54022;BME280;39936;51.058;17.220;2024-01-30T15:02:41;103063.83;;;6.74;58.59
54022;BME280;39936;51.058;17.220;2024-01-30T15:06:05;103067.03;;;6.67;59.15
54022;BME280;39936;51.058;17.220;2024-01-30T15:09:29;103057.08;;;6.47;59.36
54022;BME280;39936;51.058;17.220;2024-01-30T15:12:59;103060.90;;;6.47;59.49
54022;BME280;39936;51.058;17.220;2024-01-30T15:16:24;103073.31;;;6.40;60.06
54022;BME280;39936;51.058;17.220;2024-01-30T15:19:51;103077.20;;;6.25;60.38
54022;BME280;39936;51.058;17.220;2024-01-30T15:23:17;103074.22;;;6.16;60.68
54022;BME280;39936;51.058;17.220;2024-01-30T15:26:57;103077.80;;;6.13;61.05
54022;BME280;39936;51.058;17.220;2024-01-30T15:30:35;103066.39;;;5.86;61.66
54022;BME280;39936;51.058;17.220;2024-01-30T15:34:02;103076.86;;;5.91;61.57
54022;BME280;39936;51.058;17.220;2024-01-30T15:37:25;103075.57;;;5.82;62.01
54022;BME280;39936;51.058;17.220;2024-01-30T15:40:50;103074.09;;;5.74;62.34
54022;BME280;39936;51.058;17.220;2024-01-30T15:44:30;103079.73;;;5.62;62.82
54022;BME280;39936;51.058;17.220;2024-01-30T15:47:51;103057.10;;;5.42;62.80
54022;BME280;39936;51.058;17.220;2024-01-30T15:51:13;103079.92;;;5.51;63.16
54022;BME280;39936;51.058;17.220;2024-01-30T15:54:32;103079.66;;;5.45;63.45
54022;BME280;39936;51.058;17.220;2024-01-30T15:57:46;103081.42;;;5.33;63.80
54022;BME280;39936;51.058;17.220;2024-01-30T16:01:02;103084.09;;;5.21;64.37
54022;BME280;39936;51.058;17.220;2024-01-30T16:04:27;103085.98;;;5.14;64.63
54022;BME280;39936;51.058;17.220;2024-01-30T16:07:50;103090.16;;;5.11;64.80
54022;BME280;39936;51.058;17.220;2024-01-30T16:11:42;103077.66;;;5.00;64.92
54022;BME280;39936;51.058;17.220;2024-01-30T16:15:07;103061.67;;;4.82;65.33
54022;BME280;39936;51.058;17.220;2024-01-30T16:18:38;103088.85;;;4.88;65.55
54022;BME280;39936;51.058;17.220;2024-01-30T16:21:56;103094.97;;;4.87;65.69
54022;BME280;39936;51.058;17.220;2024-01-30T16:25:14;103094.02;;;4.82;65.64
54022;BME280;39936;51.058;17.220;2024-01-30T16:29:06;103090.55;;;4.82;65.50
54022;BME280;39936;51.058;17.220;2024-01-30T16:32:24;103068.18;;;4.61;65.92
54022;BME280;39936;51.058;17.220;2024-01-30T16:35:47;103092.28;;;4.72;66.14
54022;BME280;39936;51.058;17.220;2024-01-30T16:39:03;103095.05;;;4.72;66.08
54022;BME280;39936;51.058;17.220;2024-01-30T16:42:41;103087.74;;;4.48;66.95
54022;BME280;39936;51.058;17.220;2024-01-30T16:45:59;103103.76;;;4.47;67.36
54022;BME280;39936;51.058;17.220;2024-01-30T16:49:28;103101.86;;;4.44;67.53
54022;BME280;39936;51.058;17.220;2024-01-30T16:56:42;103092.09;;;4.25;68.00
54022;BME280;39936;51.058;17.220;2024-01-30T17:00:07;103110.30;;;4.27;68.41
54022;BME280;39936;51.058;17.220;2024-01-30T17:03:23;103123.80;;;4.27;68.54
54022;BME280;39936;51.058;17.220;2024-01-30T17:07:12;103129.20;;;4.19;68.90
54022;BME280;39936;51.058;17.220;2024-01-30T17:11:16;103127.91;;;4.15;69.05
54022;BME280;39936;51.058;17.220;2024-01-30T17:14:32;103115.30;;;3.98;69.94
54022;BME280;39936;51.058;17.220;2024-01-30T17:18:05;103091.60;;;3.72;70.22
54022;BME280;39936;51.058;17.220;2024-01-30T17:21:23;103100.27;;;3.68;70.73
54022;BME280;39936;51.058;17.220;2024-01-30T17:24:44;103134.39;;;3.84;70.95
54022;BME280;39936;51.058;17.220;2024-01-30T17:28:17;103130.38;;;3.81;70.90
54022;BME280;39936;51.058;17.220;2024-01-30T17:31:48;103131.79;;;3.73;71.34
54022;BME280;39936;51.058;17.220;2024-01-30T17:35:28;103090.52;;;3.36;71.96
54022;BME280;39936;51.058;17.220;2024-01-30T17:39:18;103126.97;;;3.49;72.57
54022;BME280;39936;51.058;17.220;2024-01-30T17:43:23;103123.59;;;3.46;72.63
54022;BME280;39936;51.058;17.220;2024-01-30T17:46:41;103127.39;;;3.44;72.49
54022;BME280;39936;51.058;17.220;2024-01-30T17:50:26;103108.53;;;3.29;72.69
54022;BME280;39936;51.058;17.220;2024-01-30T17:53:47;103133.77;;;3.32;72.81
54022;BME280;39936;51.058;17.220;2024-01-30T17:57:50;103093.43;;;3.03;72.92
54022;BME280;39936;51.058;17.220;2024-01-30T18:01:35;103123.09;;;3.16;73.08
54022;BME280;39936;51.058;17.220;2024-01-30T18:04:53;103123.76;;;3.15;73.54
54022;BME280;39936;51.058;17.220;2024-01-30T18:08:12;103128.73;;;3.07;74.03
54022;BME280;39936;51.058;17.220;2024-01-30T18:11:26;103118.14;;;2.95;74.50
54022;BME280;39936;51.058;17.220;2024-01-30T18:14:47;103123.90;;;2.94;74.81
54022;BME280;39936;51.058;17.220;2024-01-30T18:18:51;103115.76;;;2.87;75.10
54022;BME280;39936;51.058;17.220;2024-01-30T18:22:30;103119.19;;;2.88;75.35
54022;BME280;39936;51.058;17.220;2024-01-30T18:25:45;103118.51;;;2.82;75.59
54022;BME280;39936;51.058;17.220;2024-01-30T18:29:24;103122.84;;;2.82;75.81
54022;BME280;39936;51.058;17.220;2024-01-30T18:32:59;103119.18;;;2.78;76.19
54022;BME280;39936;51.058;17.220;2024-01-30T18:36:56;103119.40;;;2.73;77.04
54022;BME280;39936;51.058;17.220;2024-01-30T18:41:03;103120.64;;;2.71;77.05
54022;BME280;39936;51.058;17.220;2024-01-30T18:44:43;103096.38;;;2.63;77.07
54022;BME280;39936;51.058;17.220;2024-01-30T18:48:11;103123.17;;;2.74;77.33
54022;BME280;39936;51.058;17.220;2024-01-30T18:51:55;103125.30;;;2.71;77.79
54022;BME280;39936;51.058;17.220;2024-01-30T18:59:05;103129.62;;;2.70;78.23
54022;BME280;39936;51.058;17.220;2024-01-30T19:02:26;103131.04;;;2.59;78.88
54022;BME280;39936;51.058;17.220;2024-01-30T19:05:40;103131.43;;;2.66;78.72
54022;BME280;39936;51.058;17.220;2024-01-30T19:09:20;103127.19;;;2.68;78.62
54022;BME280;39936;51.058;17.220;2024-01-30T19:13:02;103130.45;;;2.65;78.92
54022;BME280;39936;51.058;17.220;2024-01-30T19:16:18;103129.45;;;2.63;79.13
54022;BME280;39936;51.058;17.220;2024-01-30T19:19:54;103135.03;;;2.62;79.27
54022;BME280;39936;51.058;17.220;2024-01-30T19:23:10;103123.78;;;2.65;79.23
54022;BME280;39936;51.058;17.220;2024-01-30T19:26:41;103120.22;;;2.69;79.03
54022;BME280;39936;51.058;17.220;2024-01-30T19:31:06;103128.84;;;2.72;78.77